sensor_id;sensor_type;location;lat;lon;timestamp;temperature;humidity
19862;DHT22;10093;48.148;8.542;2023-04-16T00:02:00;6.00;99.90
19862;DHT22;10093;48.148;8.542;2023-04-16T00:04:26;6.10;99.90
19862;DHT22;10093;48.148;8.542;2023-04-16T00:06:51;6.10;99.90
19862;DHT22;10093;48.148;8.542;2023-04-16T00:09:17;5.90;99.90
19862;DHT22;10093;48.148;8.542;2023-04-16T00:11:42;5.90;99.90
19862;DHT22;10093;48.148;8.542;2023-04-16T00:14:08;5.90;99.90
19862;DHT22;10093;48.148;8.542;2023-04-16T00:16:34;5.90;99.90
19862;DHT22;10093;48.148;8.542;2023-04-16T00:18:59;5.70;99.90
19862;DHT22;10093;48.148;8.542;2023-04-16T00:21:25;5.80;99.90
19862;DHT22;10093;48.148;8.542;2023-04-16T00:23:51;5.70;99.90
19862;DHT22;10093;48.148;8.542;2023-04-16T00:26:16;5.70;99.90
19862;DHT22;10093;48.148;8.542;2023-04-16T00:28:42;5.80;99.90
19862;DHT22;10093;48.148;8.542;2023-04-16T00:31:07;5.70;99.90
19862;DHT22;10093;48.148;8.542;2023-04-16T00:33:33;5.80;99.90
19862;DHT22;10093;48.148;8.542;2023-04-16T00:35:58;5.90;99.90
19862;DHT22;10093;48.148;8.542;2023-04-16T00:38:24;5.70;99.90
19862;DHT22;10093;48.148;8.542;2023-04-16T00:40:54;5.90;99.90
19862;DHT22;10093;48.148;8.542;2023-04-16T00:43:23;5.80;99.90
19862;DHT22;10093;48.148;8.542;2023-04-16T00:45:51;5.90;99.90
19862;DHT22;10093;48.148;8.542;2023-04-16T00:48:17;5.90;99.90
19862;DHT22;10093;48.148;8.542;2023-04-16T00:50:43;6.00;99.90
19862;DHT22;10093;48.148;8.542;2023-04-16T00:53:09;6.00;99.90
19862;DHT22;10093;48.148;8.542;2023-04-16T00:55:35;5.90;99.90
19862;DHT22;10093;48.148;8.542;2023-04-16T00:58:01;6.00;99.90
19862;DHT22;10093;48.148;8.542;2023-04-16T01:00:27;5.90;99.90
19862;DHT22;10093;48.148;8.542;2023-04-16T01:02:53;6.10;99.90
19862;DHT22;10093;48.148;8.542;2023-04-16T01:05:19;6.00;99.90
19862;DHT22;10093;48.148;8.542;2023-04-16T01:07:45;6.00;99.90
19862;DHT22;10093;48.148;8.542;2023-04-16T01:10:10;6.00;99.90
19862;DHT22;10093;48.148;8.542;2023-04-16T01:12:36;5.90;99.90
19862;DHT22;10093;48.148;8.542;2023-04-16T01:15:02;5.90;99.90
19862;DHT22;10093;48.148;8.542;2023-04-16T01:17:27;6.00;99.90
19862;DHT22;10093;48.148;8.542;2023-04-16T01:19:53;5.90;99.90
19862;DHT22;10093;48.148;8.542;2023-04-16T01:22:22;6.10;99.90
19862;DHT22;10093;48.148;8.542;2023-04-16T01:24:47;6.00;99.90
19862;DHT22;10093;48.148;8.542;2023-04-16T01:27:13;6.00;99.90
19862;DHT22;10093;48.148;8.542;2023-04-16T01:29:38;6.00;99.90
19862;DHT22;10093;48.148;8.542;2023-04-16T01:32:04;6.10;99.90
19862;DHT22;10093;48.148;8.542;2023-04-16T01:34:30;6.00;99.90
19862;DHT22;10093;48.148;8.542;2023-04-16T01:36:55;6.00;99.90
19862;DHT22;10093;48.148;8.542;2023-04-16T01:39:21;5.90;99.90
19862;DHT22;10093;48.148;8.542;2023-04-16T01:41:47;6.10;99.90
19862;DHT22;10093;48.148;8.542;2023-04-16T01:44:12;6.20;99.90
19862;DHT22;10093;48.148;8.542;2023-04-16T01:46:38;6.10;99.90
19862;DHT22;10093;48.148;8.542;2023-04-16T01:49:04;6.00;99.90
19862;DHT22;10093;48.148;8.542;2023-04-16T01:51:31;6.10;99.90
19862;DHT22;10093;48.148;8.542;2023-04-16T01:53:57;6.10;99.90
19862;DHT22;10093;48.148;8.542;2023-04-16T01:56:23;6.10;99.90
19862;DHT22;10093;48.148;8.542;2023-04-16T01:58:49;6.10;99.90
19862;DHT22;10093;48.148;8.542;2023-04-16T02:01:15;6.10;99.90
19862;DHT22;10093;48.148;8.542;2023-04-16T02:03:40;6.10;99.90
19862;DHT22;10093;48.148;8.542;2023-04-16T02:06:06;6.10;99.90
19862;DHT22;10093;48.148;8.542;2023-04-16T02:08:32;6.10;99.90
19862;DHT22;10093;48.148;8.542;2023-04-16T02:10:58;6.00;99.90
19862;DHT22;10093;48.148;8.542;2023-04-16T02:13:23;6.10;99.90
19862;DHT22;10093;48.148;8.542;2023-04-16T02:15:51;6.00;99.90
19862;DHT22;10093;48.148;8.542;2023-04-16T02:18:16;6.20;99.90
19862;DHT22;10093;48.148;8.542;2023-04-16T02:20:44;6.10;99.90
19862;DHT22;10093;48.148;8.542;2023-04-16T02:23:10;6.00;99.90
19862;DHT22;10093;48.148;8.542;2023-04-16T02:25:43;6.00;99.90
19862;DHT22;10093;48.148;8.542;2023-04-16T02:28:11;6.10;99.90
19862;DHT22;10093;48.148;8.542;2023-04-16T02:30:37;6.20;99.90
19862;DHT22;10093;48.148;8.542;2023-04-16T02:33:04;6.10;99.90
19862;DHT22;10093;48.148;8.542;2023-04-16T02:35:32;6.10;99.90
19862;DHT22;10093;48.148;8.542;2023-04-16T02:37:58;6.00;99.90
19862;DHT22;10093;48.148;8.542;2023-04-16T02:40:24;5.90;99.90
19862;DHT22;10093;48.148;8.542;2023-04-16T02:42:50;6.00;99.90
19862;DHT22;10093;48.148;8.542;2023-04-16T02:45:16;5.90;99.90
19862;DHT22;10093;48.148;8.542;2023-04-16T02:47:42;5.90;99.90
19862;DHT22;10093;48.148;8.542;2023-04-16T02:50:07;6.00;99.90
19862;DHT22;10093;48.148;8.542;2023-04-16T02:52:33;6.10;99.90
19862;DHT22;10093;48.148;8.542;2023-04-16T02:54:59;6.00;99.90
19862;DHT22;10093;48.148;8.542;2023-04-16T02:57:25;6.00;99.90
19862;DHT22;10093;48.148;8.542;2023-04-16T02:59:50;5.90;99.90
19862;DHT22;10093;48.148;8.542;2023-04-16T03:02:16;6.00;99.90
19862;DHT22;10093;48.148;8.542;2023-04-16T03:04:42;6.00;99.90
19862;DHT22;10093;48.148;8.542;2023-04-16T03:07:07;6.10;99.90
19862;DHT22;10093;48.148;8.542;2023-04-16T03:09:34;6.00;99.90
19862;DHT22;10093;48.148;8.542;2023-04-16T03:12:00;6.10;99.90
19862;DHT22;10093;48.148;8.542;2023-04-16T03:14:29;6.10;99.90
19862;DHT22;10093;48.148;8.542;2023-04-16T03:16:55;6.00;99.90
19862;DHT22;10093;48.148;8.542;2023-04-16T03:19:21;6.00;99.90
19862;DHT22;10093;48.148;8.542;2023-04-16T03:21:47;5.90;99.90
19862;DHT22;10093;48.148;8.542;2023-04-16T03:24:12;5.90;99.90
19862;DHT22;10093;48.148;8.542;2023-04-16T03:26:38;5.90;99.90
19862;DHT22;10093;48.148;8.542;2023-04-16T03:29:04;5.80;99.90
19862;DHT22;10093;48.148;8.542;2023-04-16T03:31:29;5.80;99.90
19862;DHT22;10093;48.148;8.542;2023-04-16T03:33:55;5.80;99.90
19862;DHT22;10093;48.148;8.542;2023-04-16T03:36:21;6.00;99.90
19862;DHT22;10093;48.148;8.542;2023-04-16T03:38:47;5.80;99.90
19862;DHT22;10093;48.148;8.542;2023-04-16T03:41:13;6.00;99.90
19862;DHT22;10093;48.148;8.542;2023-04-16T03:43:39;5.90;99.90
19862;DHT22;10093;48.148;8.542;2023-04-16T03:46:04;6.00;99.90
19862;DHT22;10093;48.148;8.542;2023-04-16T03:48:30;6.00;99.90
19862;DHT22;10093;48.148;8.542;2023-04-16T03:50:55;6.00;99.90
19862;DHT22;10093;48.148;8.542;2023-04-16T03:53:21;6.10;99.90
19862;DHT22;10093;48.148;8.542;2023-04-16T03:55:49;6.20;99.90
19862;DHT22;10093;48.148;8.542;2023-04-16T03:58:18;6.10;99.90
19862;DHT22;10093;48.148;8.542;2023-04-16T04:00:44;6.00;99.90
19862;DHT22;10093;48.148;8.542;2023-04-16T04:03:10;5.90;99.90
19862;DHT22;10093;48.148;8.542;2023-04-16T04:05:39;6.00;99.90
19862;DHT22;10093;48.148;8.542;2023-04-16T04:08:06;5.90;99.90
19862;DHT22;10093;48.148;8.542;2023-04-16T04:10:32;6.00;99.90
19862;DHT22;10093;48.148;8.542;2023-04-16T04:12:58;6.00;99.90
19862;DHT22;10093;48.148;8.542;2023-04-16T04:15:24;5.80;99.90
19862;DHT22;10093;48.148;8.542;2023-04-16T04:17:50;5.80;99.90
19862;DHT22;10093;48.148;8.542;2023-04-16T04:20:15;5.90;99.90
19862;DHT22;10093;48.148;8.542;2023-04-16T04:22:41;6.00;99.90
19862;DHT22;10093;48.148;8.542;2023-04-16T04:25:08;6.10;99.90
19862;DHT22;10093;48.148;8.542;2023-04-16T04:27:34;6.10;99.90
19862;DHT22;10093;48.148;8.542;2023-04-16T04:30:00;5.90;99.90
19862;DHT22;10093;48.148;8.542;2023-04-16T04:32:26;5.80;99.90
19862;DHT22;10093;48.148;8.542;2023-04-16T04:34:51;5.90;99.90
19862;DHT22;10093;48.148;8.542;2023-04-16T04:37:17;5.90;99.90
19862;DHT22;10093;48.148;8.542;2023-04-16T04:39:42;5.80;99.90
19862;DHT22;10093;48.148;8.542;2023-04-16T04:42:08;5.70;99.90
19862;DHT22;10093;48.148;8.542;2023-04-16T04:44:34;5.70;99.90
19862;DHT22;10093;48.148;8.542;2023-04-16T04:46:59;5.60;99.90
19862;DHT22;10093;48.148;8.542;2023-04-16T04:49:25;5.80;99.90
19862;DHT22;10093;48.148;8.542;2023-04-16T04:51:51;5.90;99.90
19862;DHT22;10093;48.148;8.542;2023-04-16T04:54:16;6.00;99.90
19862;DHT22;10093;48.148;8.542;2023-04-16T04:56:42;6.10;99.90
19862;DHT22;10093;48.148;8.542;2023-04-16T04:59:10;6.00;99.90
19862;DHT22;10093;48.148;8.542;2023-04-16T05:01:37;5.90;99.90
19862;DHT22;10093;48.148;8.542;2023-04-16T05:04:03;5.90;99.90
19862;DHT22;10093;48.148;8.542;2023-04-16T05:06:28;5.80;99.90
19862;DHT22;10093;48.148;8.542;2023-04-16T05:08:54;6.00;99.90
19862;DHT22;10093;48.148;8.542;2023-04-16T05:11:20;5.90;99.90
19862;DHT22;10093;48.148;8.542;2023-04-16T05:13:45;5.90;99.90
19862;DHT22;10093;48.148;8.542;2023-04-16T05:16:11;5.70;99.90
19862;DHT22;10093;48.148;8.542;2023-04-16T05:18:36;5.90;99.90
19862;DHT22;10093;48.148;8.542;2023-04-16T05:21:02;6.00;99.90
19862;DHT22;10093;48.148;8.542;2023-04-16T05:23:28;6.00;99.90
19862;DHT22;10093;48.148;8.542;2023-04-16T05:25:54;6.00;99.90
19862;DHT22;10093;48.148;8.542;2023-04-16T05:28:19;6.00;99.90
19862;DHT22;10093;48.148;8.542;2023-04-16T05:30:45;5.90;99.90
19862;DHT22;10093;48.148;8.542;2023-04-16T05:33:11;5.80;99.90
19862;DHT22;10093;48.148;8.542;2023-04-16T05:35:36;5.80;99.90
19862;DHT22;10093;48.148;8.542;2023-04-16T05:38:02;5.90;99.90
19862;DHT22;10093;48.148;8.542;2023-04-16T05:40:28;6.10;99.90
19862;DHT22;10093;48.148;8.542;2023-04-16T05:42:54;5.90;99.90
19862;DHT22;10093;48.148;8.542;2023-04-16T05:45:20;5.90;99.90
19862;DHT22;10093;48.148;8.542;2023-04-16T05:47:45;6.10;99.90
19862;DHT22;10093;48.148;8.542;2023-04-16T05:50:11;6.10;99.90
19862;DHT22;10093;48.148;8.542;2023-04-16T05:52:37;6.20;99.90
19862;DHT22;10093;48.148;8.542;2023-04-16T05:55:03;6.10;99.90
19862;DHT22;10093;48.148;8.542;2023-04-16T05:57:29;6.00;99.90
19862;DHT22;10093;48.148;8.542;2023-04-16T05:59:55;6.10;99.90
19862;DHT22;10093;48.148;8.542;2023-04-16T06:02:20;6.10;99.90
19862;DHT22;10093;48.148;8.542;2023-04-16T06:04:46;6.10;99.90
19862;DHT22;10093;48.148;8.542;2023-04-16T06:07:12;6.10;99.90
19862;DHT22;10093;48.148;8.542;2023-04-16T06:09:37;6.00;99.90
19862;DHT22;10093;48.148;8.542;2023-04-16T06:12:03;6.20;99.90
19862;DHT22;10093;48.148;8.542;2023-04-16T06:14:29;6.10;99.90
19862;DHT22;10093;48.148;8.542;2023-04-16T06:16:54;6.20;99.90
19862;DHT22;10093;48.148;8.542;2023-04-16T06:19:20;6.10;99.90
19862;DHT22;10093;48.148;8.542;2023-04-16T06:21:46;6.10;99.90
19862;DHT22;10093;48.148;8.542;2023-04-16T06:24:12;6.00;99.90
19862;DHT22;10093;48.148;8.542;2023-04-16T06:26:37;6.10;99.90
19862;DHT22;10093;48.148;8.542;2023-04-16T06:29:03;6.20;99.90
19862;DHT22;10093;48.148;8.542;2023-04-16T06:31:29;6.20;99.90
19862;DHT22;10093;48.148;8.542;2023-04-16T06:33:55;6.10;99.90
19862;DHT22;10093;48.148;8.542;2023-04-16T06:36:21;6.10;99.90
19862;DHT22;10093;48.148;8.542;2023-04-16T06:38:47;6.20;99.90
19862;DHT22;10093;48.148;8.542;2023-04-16T06:41:13;6.10;99.90
19862;DHT22;10093;48.148;8.542;2023-04-16T06:43:39;6.10;99.90
19862;DHT22;10093;48.148;8.542;2023-04-16T06:46:04;6.10;99.90
19862;DHT22;10093;48.148;8.542;2023-04-16T06:48:30;6.30;99.90
19862;DHT22;10093;48.148;8.542;2023-04-16T06:50:56;6.30;99.90
19862;DHT22;10093;48.148;8.542;2023-04-16T06:53:22;6.30;99.90
19862;DHT22;10093;48.148;8.542;2023-04-16T06:55:48;6.30;99.90
19862;DHT22;10093;48.148;8.542;2023-04-16T06:58:13;6.30;99.90
19862;DHT22;10093;48.148;8.542;2023-04-16T07:00:39;6.30;99.90
19862;DHT22;10093;48.148;8.542;2023-04-16T07:03:05;6.30;99.90
19862;DHT22;10093;48.148;8.542;2023-04-16T07:05:30;6.40;99.90
19862;DHT22;10093;48.148;8.542;2023-04-16T07:07:57;6.30;99.90
19862;DHT22;10093;48.148;8.542;2023-04-16T07:10:23;6.30;99.90
19862;DHT22;10093;48.148;8.542;2023-04-16T07:12:49;6.10;99.90
19862;DHT22;10093;48.148;8.542;2023-04-16T07:15:14;6.20;99.90
19862;DHT22;10093;48.148;8.542;2023-04-16T07:17:40;6.20;99.90
19862;DHT22;10093;48.148;8.542;2023-04-16T07:20:06;6.30;99.90
19862;DHT22;10093;48.148;8.542;2023-04-16T07:22:32;6.30;99.90
19862;DHT22;10093;48.148;8.542;2023-04-16T07:24:58;6.20;99.90
19862;DHT22;10093;48.148;8.542;2023-04-16T07:27:23;6.20;99.90
19862;DHT22;10093;48.148;8.542;2023-04-16T07:29:49;6.10;99.90
19862;DHT22;10093;48.148;8.542;2023-04-16T07:32:15;6.20;99.90
19862;DHT22;10093;48.148;8.542;2023-04-16T07:34:40;6.20;99.90
19862;DHT22;10093;48.148;8.542;2023-04-16T07:37:07;6.20;99.90
19862;DHT22;10093;48.148;8.542;2023-04-16T07:39:33;6.20;99.90
19862;DHT22;10093;48.148;8.542;2023-04-16T07:41:58;6.20;99.90
19862;DHT22;10093;48.148;8.542;2023-04-16T07:44:24;6.20;99.90
19862;DHT22;10093;48.148;8.542;2023-04-16T07:46:51;6.10;99.90
19862;DHT22;10093;48.148;8.542;2023-04-16T07:49:16;6.10;99.90
19862;DHT22;10093;48.148;8.542;2023-04-16T07:51:42;6.30;99.90
19862;DHT22;10093;48.148;8.542;2023-04-16T07:54:08;6.30;99.90
19862;DHT22;10093;48.148;8.542;2023-04-16T07:56:34;6.30;99.90
19862;DHT22;10093;48.148;8.542;2023-04-16T07:59:00;6.10;99.90
19862;DHT22;10093;48.148;8.542;2023-04-16T08:01:25;6.20;99.90
19862;DHT22;10093;48.148;8.542;2023-04-16T08:03:51;6.20;99.90
19862;DHT22;10093;48.148;8.542;2023-04-16T08:06:17;6.30;99.90
19862;DHT22;10093;48.148;8.542;2023-04-16T08:08:42;6.20;99.90
19862;DHT22;10093;48.148;8.542;2023-04-16T08:11:08;6.30;99.90
19862;DHT22;10093;48.148;8.542;2023-04-16T08:13:34;6.30;99.90
19862;DHT22;10093;48.148;8.542;2023-04-16T08:16:00;6.40;99.90
19862;DHT22;10093;48.148;8.542;2023-04-16T08:18:26;6.40;99.90
19862;DHT22;10093;48.148;8.542;2023-04-16T08:20:51;6.40;99.90
19862;DHT22;10093;48.148;8.542;2023-04-16T08:23:17;6.40;99.90
19862;DHT22;10093;48.148;8.542;2023-04-16T08:25:43;6.40;99.90
19862;DHT22;10093;48.148;8.542;2023-04-16T08:28:08;6.30;99.90
19862;DHT22;10093;48.148;8.542;2023-04-16T08:30:34;6.50;99.90
19862;DHT22;10093;48.148;8.542;2023-04-16T08:33:00;6.60;99.90
19862;DHT22;10093;48.148;8.542;2023-04-16T08:35:26;6.50;99.90
19862;DHT22;10093;48.148;8.542;2023-04-16T08:37:51;6.60;99.90
19862;DHT22;10093;48.148;8.542;2023-04-16T08:40:18;6.70;99.90
19862;DHT22;10093;48.148;8.542;2023-04-16T08:42:53;6.60;99.90
19862;DHT22;10093;48.148;8.542;2023-04-16T08:45:20;6.80;99.90
19862;DHT22;10093;48.148;8.542;2023-04-16T08:47:47;6.80;99.90
19862;DHT22;10093;48.148;8.542;2023-04-16T08:50:14;6.70;99.90
19862;DHT22;10093;48.148;8.542;2023-04-16T08:52:51;6.80;99.90
19862;DHT22;10093;48.148;8.542;2023-04-16T08:55:38;7.00;99.90
19862;DHT22;10093;48.148;8.542;2023-04-16T08:58:21;7.00;99.90
19862;DHT22;10093;48.148;8.542;2023-04-16T09:00:47;7.10;99.90
19862;DHT22;10093;48.148;8.542;2023-04-16T09:03:13;7.20;99.90
19862;DHT22;10093;48.148;8.542;2023-04-16T09:05:39;7.30;99.90
19862;DHT22;10093;48.148;8.542;2023-04-16T09:08:06;7.40;99.90
19862;DHT22;10093;48.148;8.542;2023-04-16T09:10:32;7.40;99.90
19862;DHT22;10093;48.148;8.542;2023-04-16T09:12:58;7.50;99.90
19862;DHT22;10093;48.148;8.542;2023-04-16T09:15:24;7.50;99.90
19862;DHT22;10093;48.148;8.542;2023-04-16T09:18:09;7.50;99.90
19862;DHT22;10093;48.148;8.542;2023-04-16T09:20:37;7.60;99.90
19862;DHT22;10093;48.148;8.542;2023-04-16T09:23:02;7.60;99.90
19862;DHT22;10093;48.148;8.542;2023-04-16T09:25:32;7.50;99.90
19862;DHT22;10093;48.148;8.542;2023-04-16T09:27:59;7.70;99.90
19862;DHT22;10093;48.148;8.542;2023-04-16T09:30:26;7.70;99.90
19862;DHT22;10093;48.148;8.542;2023-04-16T09:35:47;7.60;99.90
19862;DHT22;10093;48.148;8.542;2023-04-16T09:38:13;7.70;99.90
19862;DHT22;10093;48.148;8.542;2023-04-16T09:40:39;7.80;99.90
19862;DHT22;10093;48.148;8.542;2023-04-16T09:43:16;7.50;99.90
19862;DHT22;10093;48.148;8.542;2023-04-16T09:45:52;7.60;99.90
19862;DHT22;10093;48.148;8.542;2023-04-16T09:48:29;7.70;99.90
19862;DHT22;10093;48.148;8.542;2023-04-16T09:50:55;7.70;99.90
19862;DHT22;10093;48.148;8.542;2023-04-16T09:53:25;7.40;99.90
19862;DHT22;10093;48.148;8.542;2023-04-16T09:55:54;7.20;99.90
19862;DHT22;10093;48.148;8.542;2023-04-16T09:58:20;7.20;99.90
19862;DHT22;10093;48.148;8.542;2023-04-16T10:00:49;7.60;99.90
19862;DHT22;10093;48.148;8.542;2023-04-16T10:03:28;7.90;99.90
19862;DHT22;10093;48.148;8.542;2023-04-16T10:05:54;8.10;99.90
19862;DHT22;10093;48.148;8.542;2023-04-16T10:08:22;8.10;99.90
19862;DHT22;10093;48.148;8.542;2023-04-16T10:10:48;8.10;99.90
19862;DHT22;10093;48.148;8.542;2023-04-16T10:13:14;8.30;99.90
19862;DHT22;10093;48.148;8.542;2023-04-16T10:15:42;8.40;99.90
19862;DHT22;10093;48.148;8.542;2023-04-16T10:18:08;8.60;99.90
19862;DHT22;10093;48.148;8.542;2023-04-16T10:20:34;9.20;99.90
19862;DHT22;10093;48.148;8.542;2023-04-16T10:23:02;9.50;99.90
19862;DHT22;10093;48.148;8.542;2023-04-16T10:25:28;9.80;99.90
19862;DHT22;10093;48.148;8.542;2023-04-16T10:27:54;9.90;99.90
19862;DHT22;10093;48.148;8.542;2023-04-16T10:30:21;9.70;99.90
19862;DHT22;10093;48.148;8.542;2023-04-16T10:32:47;9.40;99.90
19862;DHT22;10093;48.148;8.542;2023-04-16T10:35:15;9.30;99.90
19862;DHT22;10093;48.148;8.542;2023-04-16T10:37:43;9.50;99.90
19862;DHT22;10093;48.148;8.542;2023-04-16T10:40:26;9.80;99.90
19862;DHT22;10093;48.148;8.542;2023-04-16T10:42:58;10.20;99.90
19862;DHT22;10093;48.148;8.542;2023-04-16T10:45:36;10.60;99.90
19862;DHT22;10093;48.148;8.542;2023-04-16T10:48:06;10.80;99.90
19862;DHT22;10093;48.148;8.542;2023-04-16T10:50:35;10.80;99.90
19862;DHT22;10093;48.148;8.542;2023-04-16T10:53:25;10.70;99.90
19862;DHT22;10093;48.148;8.542;2023-04-16T10:58:34;10.40;99.90
19862;DHT22;10093;48.148;8.542;2023-04-16T11:01:05;10.30;99.90
19862;DHT22;10093;48.148;8.542;2023-04-16T11:03:31;10.00;99.90
19862;DHT22;10093;48.148;8.542;2023-04-16T11:06:10;10.00;99.90
19862;DHT22;10093;48.148;8.542;2023-04-16T11:08:38;10.00;99.90
19862;DHT22;10093;48.148;8.542;2023-04-16T11:11:05;9.90;99.90
19862;DHT22;10093;48.148;8.542;2023-04-16T11:13:31;9.60;99.90
19862;DHT22;10093;48.148;8.542;2023-04-16T11:15:57;9.40;99.90
19862;DHT22;10093;48.148;8.542;2023-04-16T11:18:23;9.40;99.90
19862;DHT22;10093;48.148;8.542;2023-04-16T11:20:50;9.50;99.90
19862;DHT22;10093;48.148;8.542;2023-04-16T11:23:16;9.60;99.90
19862;DHT22;10093;48.148;8.542;2023-04-16T11:25:41;9.60;99.90
19862;DHT22;10093;48.148;8.542;2023-04-16T11:28:07;9.50;99.90
19862;DHT22;10093;48.148;8.542;2023-04-16T11:30:34;9.60;99.90
19862;DHT22;10093;48.148;8.542;2023-04-16T11:33:10;9.80;99.90
19862;DHT22;10093;48.148;8.542;2023-04-16T11:35:37;9.90;99.90
19862;DHT22;10093;48.148;8.542;2023-04-16T11:38:06;10.10;99.90
19862;DHT22;10093;48.148;8.542;2023-04-16T11:40:32;10.20;99.90
19862;DHT22;10093;48.148;8.542;2023-04-16T11:43:02;10.50;99.90
19862;DHT22;10093;48.148;8.542;2023-04-16T11:45:28;10.10;99.90
19862;DHT22;10093;48.148;8.542;2023-04-16T11:47:54;10.00;99.90
19862;DHT22;10093;48.148;8.542;2023-04-16T11:50:26;9.60;99.90
19862;DHT22;10093;48.148;8.542;2023-04-16T11:52:57;9.50;99.90
19862;DHT22;10093;48.148;8.542;2023-04-16T11:55:27;9.30;99.90
19862;DHT22;10093;48.148;8.542;2023-04-16T11:57:53;8.90;99.90
19862;DHT22;10093;48.148;8.542;2023-04-16T12:00:18;8.70;99.90
19862;DHT22;10093;48.148;8.542;2023-04-16T12:02:52;8.80;99.90
19862;DHT22;10093;48.148;8.542;2023-04-16T12:05:37;8.80;99.90
19862;DHT22;10093;48.148;8.542;2023-04-16T12:08:08;8.80;99.90
19862;DHT22;10093;48.148;8.542;2023-04-16T12:10:52;8.70;99.90
19862;DHT22;10093;48.148;8.542;2023-04-16T12:13:18;8.70;99.90
19862;DHT22;10093;48.148;8.542;2023-04-16T12:15:53;8.80;99.90
19862;DHT22;10093;48.148;8.542;2023-04-16T12:18:22;8.70;99.90
19862;DHT22;10093;48.148;8.542;2023-04-16T12:20:49;8.60;99.90
19862;DHT22;10093;48.148;8.542;2023-04-16T12:23:26;8.50;99.90
19862;DHT22;10093;48.148;8.542;2023-04-16T12:25:53;8.90;99.90
19862;DHT22;10093;48.148;8.542;2023-04-16T12:28:29;9.50;99.90
19862;DHT22;10093;48.148;8.542;2023-04-16T12:30:55;9.90;99.90
19862;DHT22;10093;48.148;8.542;2023-04-16T12:33:21;9.90;99.90
19862;DHT22;10093;48.148;8.542;2023-04-16T12:35:47;9.80;99.90
19862;DHT22;10093;48.148;8.542;2023-04-16T12:38:12;9.70;99.90
19862;DHT22;10093;48.148;8.542;2023-04-16T12:40:39;9.60;99.90
19862;DHT22;10093;48.148;8.542;2023-04-16T12:43:06;9.40;99.90
19862;DHT22;10093;48.148;8.542;2023-04-16T12:45:32;8.90;99.90
19862;DHT22;10093;48.148;8.542;2023-04-16T12:47:58;8.70;99.90
19862;DHT22;10093;48.148;8.542;2023-04-16T12:50:24;8.40;99.90
19862;DHT22;10093;48.148;8.542;2023-04-16T12:52:49;8.40;99.90
19862;DHT22;10093;48.148;8.542;2023-04-16T12:55:15;8.60;99.90
19862;DHT22;10093;48.148;8.542;2023-04-16T12:57:41;8.60;99.90
19862;DHT22;10093;48.148;8.542;2023-04-16T13:00:07;8.80;99.90
19862;DHT22;10093;48.148;8.542;2023-04-16T13:02:35;8.90;99.90
19862;DHT22;10093;48.148;8.542;2023-04-16T13:05:01;8.80;99.90
19862;DHT22;10093;48.148;8.542;2023-04-16T13:07:27;8.60;99.90
19862;DHT22;10093;48.148;8.542;2023-04-16T13:09:53;8.50;99.90
19862;DHT22;10093;48.148;8.542;2023-04-16T13:12:18;8.50;99.90
19862;DHT22;10093;48.148;8.542;2023-04-16T13:14:44;8.60;99.90
19862;DHT22;10093;48.148;8.542;2023-04-16T13:17:10;8.70;99.90
19862;DHT22;10093;48.148;8.542;2023-04-16T13:19:36;8.70;99.90
19862;DHT22;10093;48.148;8.542;2023-04-16T13:22:02;8.60;99.90
19862;DHT22;10093;48.148;8.542;2023-04-16T13:24:28;8.60;99.90
19862;DHT22;10093;48.148;8.542;2023-04-16T13:26:54;8.80;99.90
19862;DHT22;10093;48.148;8.542;2023-04-16T13:29:21;8.90;99.90
19862;DHT22;10093;48.148;8.542;2023-04-16T13:31:47;8.50;99.90
19862;DHT22;10093;48.148;8.542;2023-04-16T13:34:12;8.80;99.90
19862;DHT22;10093;48.148;8.542;2023-04-16T13:36:38;8.80;99.90
19862;DHT22;10093;48.148;8.542;2023-04-16T13:39:03;9.00;99.90
19862;DHT22;10093;48.148;8.542;2023-04-16T13:41:34;9.00;99.90
19862;DHT22;10093;48.148;8.542;2023-04-16T13:44:00;8.90;99.90
19862;DHT22;10093;48.148;8.542;2023-04-16T13:46:26;8.80;99.90
19862;DHT22;10093;48.148;8.542;2023-04-16T13:48:53;8.70;99.90
19862;DHT22;10093;48.148;8.542;2023-04-16T13:51:19;8.50;99.90
19862;DHT22;10093;48.148;8.542;2023-04-16T13:53:44;8.30;99.90
19862;DHT22;10093;48.148;8.542;2023-04-16T13:56:11;8.30;99.90
19862;DHT22;10093;48.148;8.542;2023-04-16T13:58:37;8.40;99.90
19862;DHT22;10093;48.148;8.542;2023-04-16T14:01:02;8.50;99.90
19862;DHT22;10093;48.148;8.542;2023-04-16T14:03:28;8.50;99.90
19862;DHT22;10093;48.148;8.542;2023-04-16T14:05:54;8.50;99.90
19862;DHT22;10093;48.148;8.542;2023-04-16T14:08:19;8.50;99.90
19862;DHT22;10093;48.148;8.542;2023-04-16T14:10:48;8.50;99.90
19862;DHT22;10093;48.148;8.542;2023-04-16T14:13:14;8.50;99.90
19862;DHT22;10093;48.148;8.542;2023-04-16T14:15:40;8.60;99.90
19862;DHT22;10093;48.148;8.542;2023-04-16T14:18:05;8.60;99.90
19862;DHT22;10093;48.148;8.542;2023-04-16T14:20:31;8.60;99.90
19862;DHT22;10093;48.148;8.542;2023-04-16T14:22:57;8.70;99.90
19862;DHT22;10093;48.148;8.542;2023-04-16T14:25:23;8.80;99.90
19862;DHT22;10093;48.148;8.542;2023-04-16T14:27:48;8.70;99.90
19862;DHT22;10093;48.148;8.542;2023-04-16T14:30:24;8.70;99.90
19862;DHT22;10093;48.148;8.542;2023-04-16T14:32:50;8.70;99.90
19862;DHT22;10093;48.148;8.542;2023-04-16T14:35:15;8.60;99.90
19862;DHT22;10093;48.148;8.542;2023-04-16T14:37:41;8.70;99.90
19862;DHT22;10093;48.148;8.542;2023-04-16T14:40:07;8.70;99.90
19862;DHT22;10093;48.148;8.542;2023-04-16T14:42:33;8.80;99.90
19862;DHT22;10093;48.148;8.542;2023-04-16T14:45:01;8.50;99.90
19862;DHT22;10093;48.148;8.542;2023-04-16T14:47:27;8.60;99.90
19862;DHT22;10093;48.148;8.542;2023-04-16T14:49:53;8.50;99.90
19862;DHT22;10093;48.148;8.542;2023-04-16T14:52:18;8.50;99.90
19862;DHT22;10093;48.148;8.542;2023-04-16T14:54:44;8.50;99.90
19862;DHT22;10093;48.148;8.542;2023-04-16T14:57:12;8.60;99.90
19862;DHT22;10093;48.148;8.542;2023-04-16T14:59:38;8.60;99.90
19862;DHT22;10093;48.148;8.542;2023-04-16T15:02:03;8.40;99.90
19862;DHT22;10093;48.148;8.542;2023-04-16T15:04:29;8.30;99.90
19862;DHT22;10093;48.148;8.542;2023-04-16T15:06:55;8.30;99.90
19862;DHT22;10093;48.148;8.542;2023-04-16T15:09:24;8.30;99.90
19862;DHT22;10093;48.148;8.542;2023-04-16T15:11:50;8.10;99.90
19862;DHT22;10093;48.148;8.542;2023-04-16T15:14:16;7.90;99.90
19862;DHT22;10093;48.148;8.542;2023-04-16T15:16:42;7.70;99.90
19862;DHT22;10093;48.148;8.542;2023-04-16T15:19:08;7.60;99.90
19862;DHT22;10093;48.148;8.542;2023-04-16T15:21:33;7.60;99.90
19862;DHT22;10093;48.148;8.542;2023-04-16T15:23:59;7.60;99.90
19862;DHT22;10093;48.148;8.542;2023-04-16T15:26:25;7.60;99.90
19862;DHT22;10093;48.148;8.542;2023-04-16T15:28:51;7.50;99.90
19862;DHT22;10093;48.148;8.542;2023-04-16T15:31:17;7.50;99.90
19862;DHT22;10093;48.148;8.542;2023-04-16T15:33:45;7.50;99.90
19862;DHT22;10093;48.148;8.542;2023-04-16T15:36:11;7.40;99.90
19862;DHT22;10093;48.148;8.542;2023-04-16T15:38:37;7.50;99.90
19862;DHT22;10093;48.148;8.542;2023-04-16T15:41:03;7.60;99.90
19862;DHT22;10093;48.148;8.542;2023-04-16T15:43:29;7.50;99.90
19862;DHT22;10093;48.148;8.542;2023-04-16T15:45:54;7.50;99.90
19862;DHT22;10093;48.148;8.542;2023-04-16T15:48:21;7.60;99.90